Time,TemperatureF,DewpointF,PressureIn,WindDirection,WindDirectionDegrees,WindSpeedMPH,WindSpeedGustMPH,Humidity,HourlyPrecipIn,Conditions,Clouds,dailyrainin,SoftwareType,DateUTC
2013-03-18 00:02:00,29.0,19.0,-100.00,SW,225,4.0,6.0,67,-99.99,,,-99.99,,2013-03-18 07:02:00,
2013-03-18 00:12:00,29.0,19.0,-100.00,SW,225,4.0,6.0,67,-99.99,,,-99.99,,2013-03-18 07:12:00,
2013-03-18 00:22:00,29.0,20.0,-100.00,SW,225,6.0,7.0,67,-99.99,,,-99.99,,2013-03-18 07:22:00,
2013-03-18 00:32:00,29.0,20.0,-100.00,SW,225,7.0,9.0,68,-99.99,,,-99.99,,2013-03-18 07:32:00,
2013-03-18 00:42:00,29.0,20.0,-100.00,SW,225,7.0,9.0,68,-99.99,,,-99.99,,2013-03-18 07:42:00,
2013-03-18 00:52:00,30.0,21.0,-100.00,SW,225,7.0,9.0,68,-99.99,,,-99.99,,2013-03-18 07:52:00,
2013-03-18 01:02:00,31.0,21.0,-100.00,SW,225,6.0,9.0,68,-99.99,,,-99.99,,2013-03-18 08:02:00,
2013-03-18 01:12:00,31.0,21.0,-100.00,SW,225,6.0,9.0,68,-99.99,,,-99.99,,2013-03-18 08:12:00,
2013-03-18 01:22:00,31.0,21.0,-100.00,SW,225,6.0,9.0,68,-99.99,,,-99.99,,2013-03-18 08:22:00,
2013-03-18 01:32:00,31.0,22.0,-100.00,SW,225,4.0,8.0,69,-99.99,,,-99.99,,2013-03-18 08:32:00,
2013-03-18 01:43:00,31.0,22.0,-100.00,SW,225,4.0,8.0,69,-99.99,,,-99.99,,2013-03-18 08:43:00,
2013-03-18 01:52:00,30.0,21.0,-100.00,SW,225,1.0,5.0,69,-99.99,,,-99.99,,2013-03-18 08:52:00,
2013-03-18 02:02:00,30.0,21.0,-100.00,SW,225,3.0,6.0,69,-99.99,,,-99.99,,2013-03-18 09:02:00,
2013-03-18 02:12:00,30.0,21.0,-100.00,SW,225,3.0,6.0,69,-99.99,,,-99.99,,2013-03-18 09:12:00,
2013-03-18 02:22:00,30.0,21.0,-100.00,SW,225,5.0,7.0,69,-99.99,,,-99.99,,2013-03-18 09:22:00,
2013-03-18 02:33:00,30.0,22.0,-100.00,SW,225,5.0,7.0,70,-99.99,,,-99.99,,2013-03-18 09:33:00,
2013-03-18 02:42:00,30.0,22.0,-100.00,SW,225,5.0,7.0,70,-99.99,,,-99.99,,2013-03-18 09:42:00,
2013-03-18 02:53:00,30.0,21.0,-100.00,SW,225,4.0,7.0,70,-99.99,,,-99.99,,2013-03-18 09:53:00,
2013-03-18 03:03:00,29.0,21.0,-100.00,SW,225,2.0,4.0,72,-99.99,,,-99.99,,2013-03-18 10:03:00,
2013-03-18 03:12:00,29.0,21.0,-100.00,SW,225,2.0,4.0,72,-99.99,,,-99.99,,2013-03-18 10:12:00,
2013-03-18 03:23:00,29.0,22.0,-100.00,South,180,3.0,4.0,73,-99.99,,,-99.99,,2013-03-18 10:23:00,
2013-03-18 03:33:00,29.0,21.0,-100.00,SW,225,2.0,4.0,74,-99.99,,,-99.99,,2013-03-18 10:33:00,
2013-03-18 03:42:00,29.0,21.0,-100.00,SW,225,2.0,4.0,74,-99.99,,,-99.99,,2013-03-18 10:42:00,
2013-03-18 03:53:00,29.0,22.0,-100.00,South,180,3.0,3.0,75,-99.99,,,-99.99,,2013-03-18 10:53:00,
2013-03-18 04:03:00,29.0,22.0,-100.00,SE,135,1.0,3.0,75,-99.99,,,-99.99,,2013-03-18 11:03:00,
2013-03-18 04:12:00,29.0,22.0,-100.00,SE,135,1.0,3.0,75,-99.99,,,-99.99,,2013-03-18 11:12:00,
2013-03-18 04:22:00,27.0,20.0,-100.00,West,270,1.0,2.0,75,-99.99,,,-99.99,,2013-03-18 11:22:00,
2013-03-18 04:32:00,27.0,21.0,-100.00,South,180,3.0,4.0,78,-99.99,,,-99.99,,2013-03-18 11:32:00,
2013-03-18 04:42:00,27.0,21.0,-100.00,South,180,3.0,4.0,78,-99.99,,,-99.99,,2013-03-18 11:42:00,
2013-03-18 04:52:00,27.0,21.0,-100.00,South,180,4.0,6.0,80,-99.99,,,-99.99,,2013-03-18 11:52:00,
2013-03-18 05:02:00,27.0,21.0,-100.00,South,180,4.0,5.0,80,-99.99,,,-99.99,,2013-03-18 12:02:00,
2013-03-18 05:12:00,27.0,21.0,-100.00,South,180,4.0,5.0,80,-99.99,,,-99.99,,2013-03-18 12:12:00,
2013-03-18 05:22:00,27.0,21.0,-100.00,South,180,4.0,5.0,80,-99.99,,,-99.99,,2013-03-18 12:22:00,
2013-03-18 05:32:00,26.0,21.0,-100.00,SW,225,4.0,6.0,82,-99.99,,,-99.99,,2013-03-18 12:32:00,
2013-03-18 05:43:00,26.0,21.0,-100.00,SW,225,4.0,6.0,82,-99.99,,,-99.99,,2013-03-18 12:43:00,
2013-03-18 05:52:00,26.0,21.0,-100.00,SW,225,4.0,6.0,82,-99.99,,,-99.99,,2013-03-18 12:52:00,
2013-03-18 06:02:00,27.0,22.0,-100.00,SW,225,4.0,6.0,81,-99.99,,,-99.99,,2013-03-18 13:02:00,
2013-03-18 06:12:00,27.0,22.0,-100.00,SW,225,4.0,6.0,81,-99.99,,,-99.99,,2013-03-18 13:12:00,
2013-03-18 06:22:00,27.0,22.0,-100.00,South,180,4.0,8.0,81,-99.99,,,-99.99,,2013-03-18 13:22:00,
2013-03-18 06:32:00,27.0,22.0,-100.00,South,180,4.0,6.0,81,-99.99,,,-99.99,,2013-03-18 13:32:00,
2013-03-18 06:42:00,27.0,22.0,-100.00,South,180,4.0,6.0,81,-99.99,,,-99.99,,2013-03-18 13:42:00,
2013-03-18 06:52:00,27.0,22.0,-100.00,South,180,3.0,6.0,81,-99.99,,,-99.99,,2013-03-18 13:52:00,
2013-03-18 07:02:00,27.0,22.0,-100.00,SW,225,3.0,6.0,81,-99.99,,,-99.99,,2013-03-18 14:02:00,
2013-03-18 07:12:00,27.0,22.0,-100.00,SW,225,3.0,6.0,81,-99.99,,,-99.99,,2013-03-18 14:12:00,
2013-03-18 07:22:00,27.0,22.0,-100.00,South,180,3.0,5.0,81,-99.99,,,-99.99,,2013-03-18 14:22:00,
2013-03-18 07:32:00,26.0,21.0,-100.00,South,180,2.0,3.0,81,-99.99,,,-99.99,,2013-03-18 14:32:00,
2013-03-18 07:42:00,26.0,21.0,-100.00,South,180,2.0,3.0,81,-99.99,,,-99.99,,2013-03-18 14:42:00,
2013-03-18 07:52:00,26.0,21.0,-100.00,South,180,3.0,5.0,81,-99.99,,,-99.99,,2013-03-18 14:52:00,
2013-03-18 08:02:00,26.0,21.0,-100.00,South,180,5.0,7.0,81,-99.99,,,-99.99,,2013-03-18 15:02:00,
2013-03-18 08:12:00,26.0,21.0,-100.00,South,180,5.0,7.0,81,-99.99,,,-99.99,,2013-03-18 15:12:00,
2013-03-18 08:22:00,27.0,22.0,-100.00,South,180,4.0,8.0,81,-99.99,,,-99.99,,2013-03-18 15:22:00,
2013-03-18 08:33:00,27.0,22.0,-100.00,South,180,3.0,6.0,80,-99.99,,,-99.99,,2013-03-18 15:33:00,
2013-03-18 08:42:00,27.0,22.0,-100.00,South,180,3.0,6.0,80,-99.99,,,-99.99,,2013-03-18 15:42:00,
2013-03-18 08:52:00,28.0,22.0,-100.00,South,180,3.0,8.0,78,-99.99,,,-99.99,,2013-03-18 15:52:00,
2013-03-18 09:02:00,29.0,22.0,-100.00,South,180,4.0,7.0,76,-99.99,,,-99.99,,2013-03-18 16:02:00,
2013-03-18 09:12:00,29.0,22.0,-100.00,South,180,4.0,7.0,76,-99.99,,,-99.99,,2013-03-18 16:12:00,
2013-03-18 09:22:00,30.0,23.0,-100.00,SW,225,6.0,9.0,75,-99.99,,,-99.99,,2013-03-18 16:22:00,
2013-03-18 09:32:00,31.0,24.0,-100.00,SW,225,6.0,9.0,74,-99.99,,,-99.99,,2013-03-18 16:32:00,
2013-03-18 09:42:00,31.0,24.0,-100.00,SW,225,6.0,9.0,74,-99.99,,,-99.99,,2013-03-18 16:42:00,
2013-03-18 09:52:00,32.0,24.0,-100.00,SW,225,4.0,9.0,71,-99.99,,,-99.99,,2013-03-18 16:52:00,
2013-03-18 10:02:00,34.0,24.0,-100.00,South,180,6.0,9.0,68,-99.99,,,-99.99,,2013-03-18 17:02:00,
2013-03-18 10:12:00,34.0,24.0,-100.00,South,180,6.0,9.0,68,-99.99,,,-99.99,,2013-03-18 17:12:00,
2013-03-18 10:22:00,35.0,25.0,-100.00,SW,225,8.0,11.0,66,-99.99,,,-99.99,,2013-03-18 17:22:00,
2013-03-18 10:32:00,36.0,25.0,-100.00,SW,225,6.0,12.0,64,-99.99,,,-99.99,,2013-03-18 17:32:00,
2013-03-18 10:42:00,36.0,25.0,-100.00,SW,225,6.0,12.0,64,-99.99,,,-99.99,,2013-03-18 17:42:00,
2013-03-18 10:52:00,37.0,24.0,-100.00,SW,225,5.0,11.0,60,-99.99,,,-99.99,,2013-03-18 17:52:00,
2013-03-18 11:00:00,42.0,25.0,-100.00,NE,45,4.0,6.0,50,-99.99,,,-99.99,,2013-03-18 18:00:00,
2013-03-18 11:02:00,38.0,24.0,-100.00,South,180,6.0,10.0,57,-99.99,,,-99.99,,2013-03-18 18:02:00,
2013-03-18 11:12:00,38.0,24.0,-100.00,South,180,6.0,10.0,57,-99.99,,,-99.99,,2013-03-18 18:12:00,
2013-03-18 11:22:00,40.0,25.0,-100.00,East,90,3.0,8.0,54,-99.99,,,-99.99,,2013-03-18 18:22:00,
2013-03-18 11:32:00,42.0,25.0,-100.00,NE,45,4.0,6.0,50,-99.99,,,-99.99,,2013-03-18 18:32:00,
2013-03-18 11:42:00,42.0,25.0,-100.00,NE,45,4.0,6.0,50,-99.99,,,-99.99,,2013-03-18 18:42:00,
2013-03-18 11:52:00,42.0,25.0,-100.00,NE,45,4.0,6.0,50,-99.99,,,-99.99,,2013-03-18 18:52:00,
2013-03-18 12:22:00,43.0,23.0,-100.00,SW,225,9.0,15.0,45,-99.99,,,-99.99,,2013-03-18 19:22:00,
2013-03-18 12:32:00,45.0,24.0,-100.00,SW,225,4.0,8.0,43,-99.99,,,-99.99,,2013-03-18 19:32:00,
2013-03-18 12:42:00,45.0,24.0,-100.00,SW,225,4.0,8.0,43,-99.99,,,-99.99,,2013-03-18 19:42:00,
2013-03-18 12:52:00,44.0,23.0,-100.00,South,180,7.0,13.0,42,-99.99,,,-99.99,,2013-03-18 19:52:00,
2013-03-18 13:02:00,45.0,23.0,-100.00,SW,225,8.0,11.0,41,-99.99,,,-99.99,,2013-03-18 20:02:00,
2013-03-18 13:12:00,45.0,23.0,-100.00,SW,225,8.0,11.0,41,-99.99,,,-99.99,,2013-03-18 20:12:00,
2013-03-18 13:22:00,47.0,23.0,-100.00,South,180,7.0,11.0,39,-99.99,,,-99.99,,2013-03-18 20:22:00,
2013-03-18 13:32:00,47.0,23.0,-100.00,SW,225,4.0,10.0,38,-99.99,,,-99.99,,2013-03-18 20:32:00,
2013-03-18 13:42:00,47.0,23.0,-100.00,SW,225,4.0,10.0,38,-99.99,,,-99.99,,2013-03-18 20:42:00,
2013-03-18 13:52:00,47.0,23.0,-100.00,SW,225,4.0,9.0,37,-99.99,,,-99.99,,2013-03-18 20:52:00,
2013-03-18 14:02:00,48.0,23.0,-100.00,South,180,3.0,11.0,36,-99.99,,,-99.99,,2013-03-18 21:02:00,
2013-03-18 14:11:00,48.0,23.0,-100.00,South,180,3.0,11.0,36,-99.99,,,-99.99,,2013-03-18 21:11:00,
2013-03-18 14:22:00,49.0,22.0,-100.00,NW,315,3.0,13.0,34,-99.99,,,-99.99,,2013-03-18 21:22:00,
2013-03-18 14:32:00,48.0,20.0,-100.00,North,0,7.0,12.0,33,-99.99,,,-99.99,,2013-03-18 21:32:00,
2013-03-18 14:42:00,48.0,20.0,-100.00,North,0,7.0,12.0,33,-99.99,,,-99.99,,2013-03-18 21:42:00,
2013-03-18 14:53:00,49.0,20.0,-100.00,NE,45,4.0,9.0,32,-99.99,,,-99.99,,2013-03-18 21:53:00,
2013-03-18 15:03:00,50.0,19.0,-100.00,West,270,3.0,9.0,29,-99.99,,,-99.99,,2013-03-18 22:03:00,
2013-03-18 15:12:00,50.0,19.0,-100.00,West,270,3.0,9.0,29,-99.99,,,-99.99,,2013-03-18 22:12:00,
2013-03-18 15:22:00,50.0,17.0,-100.00,SW,225,3.0,11.0,27,-99.99,,,-99.99,,2013-03-18 22:22:00,
2013-03-18 15:32:00,50.0,17.0,-100.00,NE,45,6.0,11.0,26,-99.99,,,-99.99,,2013-03-18 22:32:00,
2013-03-18 15:42:00,50.0,17.0,-100.00,NE,45,6.0,11.0,26,-99.99,,,-99.99,,2013-03-18 22:42:00,
2013-03-18 15:52:00,49.0,13.0,-100.00,North,0,10.0,14.0,23,-99.99,,,-99.99,,2013-03-18 22:52:00,
2013-03-18 16:02:00,49.0,11.0,-100.00,North,0,4.0,9.0,21,-99.99,,,-99.99,,2013-03-18 23:02:00,
2013-03-18 16:12:00,49.0,11.0,-100.00,North,0,4.0,9.0,21,-99.99,,,-99.99,,2013-03-18 23:12:00,
2013-03-18 16:22:00,50.0,9.0,-100.00,NW,315,5.0,9.0,19,-99.99,,,-99.99,,2013-03-18 23:22:00,
2013-03-18 16:32:00,50.0,9.0,-100.00,NW,315,6.0,10.0,18,-99.99,,,-99.99,,2013-03-18 23:32:00,
2013-03-18 16:42:00,50.0,9.0,-100.00,NW,315,6.0,10.0,18,-99.99,,,-99.99,,2013-03-18 23:42:00,
2013-03-18 16:53:00,50.0,8.0,-100.00,North,0,4.0,9.0,18,-99.99,,,-99.99,,2013-03-18 23:53:00,
2013-03-18 17:02:00,50.0,8.0,-100.00,North,0,7.0,11.0,18,-99.99,,,-99.99,,2013-03-19 00:02:00,
2013-03-18 17:12:00,50.0,8.0,-100.00,North,0,7.0,11.0,18,-99.99,,,-99.99,,2013-03-19 00:12:00,
2013-03-18 17:22:00,50.0,8.0,-100.00,North,0,3.0,11.0,18,-99.99,,,-99.99,,2013-03-19 00:22:00,
2013-03-18 17:32:00,50.0,8.0,-100.00,North,0,3.0,11.0,18,-99.99,,,-99.99,,2013-03-19 00:32:00,
2013-03-18 17:42:00,50.0,8.0,-100.00,North,0,3.0,11.0,18,-99.99,,,-99.99,,2013-03-19 00:42:00,
2013-03-18 17:52:00,50.0,10.0,-100.00,North,0,6.0,9.0,19,-99.99,,,-99.99,,2013-03-19 00:52:00,
2013-03-18 18:02:00,50.0,9.0,-100.00,NW,315,5.0,10.0,19,-99.99,,,-99.99,,2013-03-19 01:02:00,
2013-03-18 18:12:00,50.0,9.0,-100.00,NW,315,5.0,10.0,19,-99.99,,,-99.99,,2013-03-19 01:12:00,
2013-03-18 18:22:00,50.0,9.0,-100.00,North,0,4.0,8.0,19,-99.99,,,-99.99,,2013-03-19 01:22:00,
2013-03-18 18:32:00,50.0,9.0,-100.00,NW,315,4.0,11.0,19,-99.99,,,-99.99,,2013-03-19 01:32:00,
2013-03-18 18:42:00,50.0,9.0,-100.00,NW,315,4.0,11.0,19,-99.99,,,-99.99,,2013-03-19 01:42:00,
2013-03-18 18:52:00,49.0,9.0,-100.00,North,0,4.0,9.0,19,-99.99,,,-99.99,,2013-03-19 01:52:00,
2013-03-18 19:02:00,49.0,8.0,-100.00,North,0,6.0,8.0,19,-99.99,,,-99.99,,2013-03-19 02:02:00,
2013-03-18 19:12:00,49.0,8.0,-100.00,North,0,6.0,8.0,19,-99.99,,,-99.99,,2013-03-19 02:12:00,
2013-03-18 19:22:00,48.0,8.0,-100.00,NW,315,5.0,9.0,19,-99.99,,,-99.99,,2013-03-19 02:22:00,
2013-03-18 19:32:00,47.0,8.0,-100.00,NW,315,3.0,7.0,20,-99.99,,,-99.99,,2013-03-19 02:32:00,
2013-03-18 19:42:00,47.0,8.0,-100.00,NW,315,3.0,7.0,20,-99.99,,,-99.99,,2013-03-19 02:42:00,
2013-03-18 19:52:00,45.0,8.0,-100.00,NW,315,3.0,6.0,21,-99.99,,,-99.99,,2013-03-19 02:52:00,
2013-03-18 20:02:00,44.0,8.0,-100.00,West,270,4.0,6.0,22,-99.99,,,-99.99,,2013-03-19 03:02:00,
2013-03-18 20:12:00,44.0,8.0,-100.00,West,270,4.0,6.0,22,-99.99,,,-99.99,,2013-03-19 03:12:00,
2013-03-18 20:22:00,43.0,9.0,-100.00,North,0,8.0,13.0,25,-99.99,,,-99.99,,2013-03-19 03:22:00,
2013-03-18 20:32:00,41.0,12.0,-100.00,NW,315,4.0,8.0,29,-99.99,,,-99.99,,2013-03-19 03:32:00,
2013-03-18 20:43:00,41.0,12.0,-100.00,NW,315,4.0,8.0,29,-99.99,,,-99.99,,2013-03-19 03:43:00,
2013-03-18 20:53:00,41.0,14.0,-100.00,NW,315,6.0,8.0,34,-99.99,,,-99.99,,2013-03-19 03:53:00,
2013-03-18 21:03:00,40.0,16.0,-100.00,NW,315,6.0,9.0,38,-99.99,,,-99.99,,2013-03-19 04:03:00,
2013-03-18 21:13:00,40.0,16.0,-100.00,NW,315,6.0,9.0,38,-99.99,,,-99.99,,2013-03-19 04:13:00,
2013-03-18 21:22:00,39.0,18.0,-100.00,West,270,5.0,7.0,42,-99.99,,,-99.99,,2013-03-19 04:22:00,
2013-03-18 21:33:00,39.0,19.0,-100.00,NW,315,2.0,8.0,45,-99.99,,,-99.99,,2013-03-19 04:33:00,
2013-03-18 21:42:00,39.0,19.0,-100.00,NW,315,2.0,8.0,45,-99.99,,,-99.99,,2013-03-19 04:42:00,
2013-03-18 21:52:00,38.0,20.0,-100.00,NW,315,3.0,6.0,47,-99.99,,,-99.99,,2013-03-19 04:52:00,
2013-03-18 22:02:00,37.0,20.0,-100.00,NW,315,2.0,4.0,49,-99.99,,,-99.99,,2013-03-19 05:02:00,
2013-03-18 22:11:00,37.0,20.0,-100.00,NW,315,2.0,4.0,49,-99.99,,,-99.99,,2013-03-19 05:11:00,
2013-03-18 22:22:00,37.0,21.0,-100.00,NW,315,2.0,5.0,51,-99.99,,,-99.99,,2013-03-19 05:22:00,
2013-03-18 22:32:00,37.0,21.0,-100.00,NW,315,2.0,4.0,53,-99.99,,,-99.99,,2013-03-19 05:32:00,
2013-03-18 22:42:00,37.0,21.0,-100.00,NW,315,2.0,4.0,53,-99.99,,,-99.99,,2013-03-19 05:42:00,
2013-03-18 22:52:00,36.0,22.0,-100.00,NW,315,3.0,4.0,55,-99.99,,,-99.99,,2013-03-19 05:52:00,
2013-03-18 23:02:00,36.0,22.0,-100.00,NW,315,2.0,4.0,57,-99.99,,,-99.99,,2013-03-19 06:02:00,
2013-03-18 23:12:00,36.0,22.0,-100.00,NW,315,2.0,4.0,57,-99.99,,,-99.99,,2013-03-19 06:12:00,
2013-03-18 23:22:00,35.0,22.0,-100.00,SW,225,2.0,3.0,59,-99.99,,,-99.99,,2013-03-19 06:22:00,
2013-03-18 23:32:00,34.0,22.0,-100.00,SW,225,3.0,3.0,60,-99.99,,,-99.99,,2013-03-19 06:32:00,
2013-03-18 23:42:00,34.0,22.0,-100.00,SW,225,3.0,3.0,60,-99.99,,,-99.99,,2013-03-19 06:42:00,
2013-03-18 23:52:00,33.0,21.0,-100.00,SW,225,3.0,4.0,60,-99.99,,,-99.99,,2013-03-19 06:52:00,